createdAt,value
2023-01-08T00:00:17.481Z,5.97
2023-01-08T00:05:12.037Z,6.40
2023-01-08T00:10:06.830Z,5.85
2023-01-08T00:15:00.148Z,6.07
2023-01-08T00:19:53.566Z,5.75
2023-01-08T00:24:47.759Z,6.45
2023-01-08T00:29:42.065Z,6.57
2023-01-08T00:34:35.905Z,7.25
2023-01-08T00:39:29.988Z,5.93
2023-01-08T00:44:23.304Z,6.80
2023-01-08T00:49:16.345Z,6.90
2023-01-08T00:54:11.281Z,5.57
2023-01-08T00:59:03.930Z,5.95
2023-01-08T01:03:57.260Z,5.90
2023-01-08T01:08:51.432Z,6.03
2023-01-08T01:13:45.786Z,6.15
2023-01-08T01:18:38.549Z,5.65
2023-01-08T01:23:32.291Z,5.40
2023-01-08T01:28:25.929Z,6.05
2023-01-08T01:33:20.214Z,5.30
2023-01-08T01:38:17.663Z,6.80
2023-01-08T01:43:15.247Z,5.60
2023-01-08T01:48:14.775Z,5.38
2023-01-08T01:53:23.942Z,5.90
2023-01-08T01:58:29.045Z,5.30
2023-01-08T02:03:25.173Z,5.80
2023-01-08T02:08:28.348Z,5.95
2023-01-08T02:13:27.546Z,5.93
2023-01-08T02:18:31.385Z,5.82
2023-01-08T02:23:31.078Z,6.10
2023-01-08T02:28:26.771Z,5.40
2023-01-08T02:33:19.271Z,5.85
2023-01-08T02:38:18.505Z,5.85
2023-01-08T02:43:17.357Z,5.75
2023-01-08T02:48:15.537Z,5.65
2023-01-08T02:53:18.659Z,5.47
2023-01-08T02:58:14.045Z,5.45
2023-01-08T03:03:16.519Z,5.85
2023-01-08T03:08:12.619Z,6.32
2023-01-08T03:13:41.066Z,5.53
2023-01-08T03:18:38.879Z,5.13
2023-01-08T03:23:35.560Z,4.90
2023-01-08T03:28:34.267Z,5.72
2023-01-08T03:33:31.433Z,5.30
2023-01-08T03:38:35.180Z,5.40
2023-01-08T03:43:29.906Z,6.15
2023-01-08T03:48:24.403Z,6.30
2023-01-08T03:53:17.047Z,5.93
2023-01-08T03:58:10.184Z,5.78
2023-01-08T04:03:05.776Z,5.60
2023-01-08T04:07:59.471Z,4.63
2023-01-08T04:12:52.516Z,5.28
2023-01-08T04:17:46.132Z,5.20
2023-01-08T04:22:39.914Z,5.55
2023-01-08T04:27:34.126Z,5.70
2023-01-08T04:32:27.955Z,6.40
2023-01-08T04:37:21.645Z,5.30
2023-01-08T04:42:14.921Z,5.47
2023-01-08T04:47:09.263Z,5.47
2023-01-08T04:52:02.559Z,6.00
2023-01-08T04:56:56.511Z,5.50
2023-01-08T05:01:49.657Z,5.13
2023-01-08T05:06:42.881Z,5.53
2023-01-08T05:11:37.824Z,5.68
2023-01-08T05:16:32.672Z,5.60
2023-01-08T05:21:25.429Z,5.40
2023-01-08T05:26:19.808Z,5.93
2023-01-08T05:31:13.711Z,6.18
2023-01-08T05:36:09.006Z,6.28
2023-01-08T05:41:01.350Z,6.20
2023-01-08T05:45:55.129Z,6.30
2023-01-08T05:50:50.960Z,5.95
2023-01-08T05:55:44.421Z,6.18
2023-01-08T06:00:37.486Z,5.97
2023-01-08T06:05:33.377Z,5.80
2023-01-08T06:10:29.903Z,6.22
2023-01-08T06:15:23.982Z,5.07
2023-01-08T06:20:18.190Z,6.13
2023-01-08T06:25:10.709Z,5.97
2023-01-08T06:30:04.010Z,5.80
2023-01-08T06:34:56.683Z,6.28
2023-01-08T06:39:50.895Z,6.28
2023-01-08T06:44:43.868Z,6.00
2023-01-08T06:49:37.263Z,6.50
2023-01-08T06:54:30.933Z,6.43
2023-01-08T06:59:24.882Z,5.80
2023-01-08T07:04:19.059Z,6.18
2023-01-08T07:09:16.424Z,6.20
2023-01-08T07:14:09.243Z,6.55
2023-01-08T07:19:02.879Z,6.93
2023-01-08T07:23:56.399Z,7.15
2023-01-08T07:28:49.074Z,11.15
2023-01-08T07:33:42.376Z,13.52
2023-01-08T07:38:35.284Z,14.32
2023-01-08T07:43:30.524Z,16.95
2023-01-08T07:48:24.228Z,19.73
2023-01-08T07:53:18.316Z,18.55
2023-01-08T07:58:13.816Z,18.83
2023-01-08T08:03:09.628Z,16.73
2023-01-08T08:08:03.190Z,16.85
2023-01-08T08:12:57.401Z,16.17
2023-01-08T08:17:51.019Z,17.13
2023-01-08T08:22:44.226Z,15.82
2023-01-08T08:27:37.929Z,15.10
2023-01-08T08:32:32.192Z,14.88
2023-01-08T08:37:25.194Z,14.18
2023-01-08T08:42:19.304Z,13.93
2023-01-08T08:47:13.789Z,14.77
2023-01-08T08:52:07.129Z,13.25
2023-01-08T08:57:00.733Z,13.20
2023-01-08T09:01:54.462Z,12.13
2023-01-08T09:06:47.908Z,11.98
2023-01-08T09:11:41.429Z,11.18
2023-01-08T09:16:37.206Z,10.98
2023-01-08T09:21:30.988Z,11.13
2023-01-08T09:26:24.365Z,11.48
2023-01-08T09:31:16.721Z,64.45
2023-01-08T09:36:12.387Z,53.75
2023-01-08T09:41:09.891Z,50.25
2023-01-08T09:46:06.727Z,43.53
2023-01-08T09:50:59.862Z,41.97
2023-01-08T09:56:09.670Z,36.45
2023-01-08T10:01:05.278Z,33.28
2023-01-08T10:05:59.074Z,31.30
2023-01-08T10:10:53.323Z,30.13
2023-01-08T10:15:48.285Z,28.27
2023-01-08T10:20:42.221Z,25.52
2023-01-08T10:25:54.159Z,26.52
2023-01-08T10:30:48.436Z,23.92
2023-01-08T10:35:43.190Z,24.55
2023-01-08T10:40:38.971Z,24.67
2023-01-08T10:45:32.280Z,24.40
2023-01-08T10:50:31.312Z,23.73
2023-01-08T10:55:30.467Z,22.63
2023-01-08T11:00:31.518Z,22.17
2023-01-08T11:05:51.031Z,22.27
2023-01-08T11:10:52.861Z,22.40
2023-01-08T11:15:45.964Z,21.00
2023-01-08T11:20:40.043Z,19.25
2023-01-08T11:25:35.861Z,18.17
2023-01-08T11:30:32.861Z,16.35
2023-01-08T11:35:29.296Z,16.40
2023-01-08T11:40:29.081Z,16.20
2023-01-08T11:45:22.325Z,16.15
2023-01-08T11:50:57.104Z,15.52
2023-01-08T11:56:20.645Z,15.32
2023-01-08T12:01:35.329Z,13.40
2023-01-08T12:06:47.099Z,14.70
2023-01-08T12:11:51.714Z,17.52
2023-01-08T12:17:38.686Z,16.25
2023-01-08T12:22:38.221Z,17.58
2023-01-08T12:28:02.495Z,16.48
2023-01-08T12:32:58.917Z,18.00
2023-01-08T12:38:11.567Z,16.95
2023-01-08T12:43:10.101Z,16.73
2023-01-08T12:48:17.860Z,16.92
2023-01-08T12:53:40.306Z,17.90
2023-01-08T12:59:04.847Z,19.67
2023-01-08T13:04:00.888Z,17.55
2023-01-08T13:08:58.258Z,17.58
2023-01-08T13:14:11.354Z,16.50
2023-01-08T13:19:04.943Z,17.35
2023-01-08T13:24:03.464Z,16.88
2023-01-08T13:29:08.465Z,16.10
2023-01-08T13:34:02.337Z,15.23
2023-01-08T13:39:03.027Z,14.35
2023-01-08T13:44:19.482Z,14.67
2023-01-08T13:49:28.489Z,14.88
2023-01-08T13:54:26.320Z,13.52
2023-01-08T13:59:40.821Z,14.05
2023-01-08T14:04:34.425Z,15.23
2023-01-08T14:09:28.391Z,16.50
2023-01-08T14:14:23.296Z,20.42
2023-01-08T14:19:19.592Z,22.80
2023-01-08T14:24:16.755Z,24.33
2023-01-08T14:29:19.882Z,26.30
2023-01-08T14:34:15.082Z,25.02
2023-01-08T14:39:12.937Z,24.15
2023-01-08T14:44:06.618Z,22.45
2023-01-08T14:49:00.153Z,24.55
2023-01-08T14:54:06.784Z,24.05
2023-01-08T14:59:01.064Z,22.45
2023-01-08T15:04:25.088Z,22.30
2023-01-08T15:09:23.086Z,21.05
2023-01-08T15:14:23.754Z,20.63
2023-01-08T15:19:26.000Z,19.58
2023-01-08T15:24:29.390Z,19.05
2023-01-08T15:29:38.005Z,17.65
2023-01-08T15:34:32.011Z,17.58
2023-01-08T15:39:25.796Z,17.02
2023-01-08T15:44:18.685Z,15.98
2023-01-08T15:49:12.296Z,16.27
2023-01-08T15:54:06.563Z,15.77
2023-01-08T15:59:00.330Z,15.25
2023-01-08T16:03:54.285Z,15.43
2023-01-08T16:08:48.459Z,15.00
2023-01-08T16:13:41.368Z,13.98
2023-01-08T16:18:35.155Z,14.32
2023-01-08T16:23:32.897Z,14.45
2023-01-08T16:28:26.673Z,14.38
2023-01-08T16:33:19.945Z,13.52
2023-01-08T16:38:14.342Z,13.68
2023-01-08T16:43:07.401Z,12.98
2023-01-08T16:48:01.272Z,13.80
2023-01-08T16:52:55.131Z,13.05
2023-01-08T16:57:49.186Z,12.73
2023-01-08T17:02:42.601Z,12.60
2023-01-08T17:07:36.026Z,13.45
2023-01-08T17:12:30.686Z,12.63
2023-01-08T17:17:24.057Z,13.48
2023-01-08T17:22:16.804Z,13.32
2023-01-08T17:27:11.815Z,11.90
2023-01-08T17:32:07.388Z,12.98
2023-01-08T17:37:00.665Z,12.85
2023-01-08T17:42:12.871Z,11.90
2023-01-08T17:47:06.068Z,12.13
2023-01-08T17:51:59.893Z,12.65
2023-01-08T17:56:53.696Z,13.07
2023-01-08T18:01:47.866Z,11.98
2023-01-08T18:06:42.301Z,12.65
2023-01-08T18:11:36.110Z,13.35
2023-01-08T18:16:32.557Z,13.82
2023-01-08T18:21:26.895Z,13.27
2023-01-08T18:26:25.405Z,14.25
2023-01-08T18:31:19.825Z,16.95
2023-01-08T18:36:14.161Z,21.95
2023-01-08T18:41:07.013Z,24.80
2023-01-08T18:46:05.384Z,26.65
2023-01-08T18:50:58.988Z,28.60
2023-01-08T18:55:55.286Z,31.95
2023-01-08T19:00:55.831Z,31.55
2023-01-08T19:05:53.736Z,33.80
2023-01-08T19:10:51.828Z,32.70
2023-01-08T19:15:51.103Z,34.83
2023-01-08T19:20:52.937Z,32.10
2023-01-08T19:25:50.174Z,32.35
2023-01-08T19:30:50.568Z,33.47
2023-01-08T19:35:45.329Z,31.30
2023-01-08T19:40:45.719Z,31.25
2023-01-08T19:45:40.681Z,31.75
2023-01-08T19:50:34.773Z,32.10
2023-01-08T19:55:29.051Z,40.53
2023-01-08T20:00:23.178Z,42.42
2023-01-08T20:05:17.164Z,40.17
2023-01-08T20:10:30.625Z,41.55
2023-01-08T20:15:24.650Z,36.25
2023-01-08T20:20:18.345Z,39.25
2023-01-08T20:25:10.978Z,39.60
2023-01-08T20:30:06.089Z,36.17
2023-01-08T20:35:00.267Z,35.95
2023-01-08T20:39:54.084Z,33.58
2023-01-08T20:44:47.870Z,32.83
2023-01-08T20:49:41.767Z,31.30
2023-01-08T20:54:35.219Z,31.20
2023-01-08T20:59:28.943Z,29.33
2023-01-08T21:04:21.813Z,28.17
2023-01-08T21:09:17.488Z,27.77
2023-01-08T21:14:10.789Z,26.23
2023-01-08T21:19:05.231Z,24.98
2023-01-08T21:23:58.357Z,26.13
2023-01-08T21:28:51.993Z,23.70
2023-01-08T21:33:47.674Z,24.48
2023-01-08T21:38:42.423Z,25.95
2023-01-08T21:43:53.881Z,26.55
2023-01-08T21:48:52.815Z,26.35
2023-01-08T21:53:45.660Z,25.92
2023-01-08T21:58:40.010Z,25.48
2023-01-08T22:03:33.663Z,26.02
2023-01-08T22:08:28.547Z,26.25
2023-01-08T22:13:21.153Z,27.42
2023-01-08T22:18:14.694Z,26.08
2023-01-08T22:23:08.280Z,28.50
2023-01-08T22:28:02.090Z,26.45
2023-01-08T22:32:55.898Z,26.05
2023-01-08T22:37:49.684Z,25.65
2023-01-08T22:42:43.280Z,24.17
2023-01-08T22:47:36.613Z,24.20
2023-01-08T22:52:30.276Z,25.63
2023-01-08T22:57:24.189Z,23.25
2023-01-08T23:02:24.683Z,23.25
2023-01-08T23:07:18.041Z,22.27
2023-01-08T23:12:11.812Z,22.83
2023-01-08T23:17:05.580Z,22.13
2023-01-08T23:21:58.727Z,22.27
2023-01-08T23:26:52.211Z,21.23
2023-01-08T23:31:46.319Z,19.77
2023-01-08T23:36:40.186Z,19.85
2023-01-08T23:41:35.034Z,18.98
2023-01-08T23:46:29.372Z,19.58
2023-01-08T23:51:22.751Z,18.02
2023-01-08T23:56:16.700Z,18.45
